sensor_id;sensor_type;location;lat;lon;timestamp;temperature;humidity
16321;DHT22;8269;50.990;4.494;2024-01-16T00:00:54;0.90;99.90
16321;DHT22;8269;50.990;4.494;2024-01-16T00:03:19;0.90;99.90
16321;DHT22;8269;50.990;4.494;2024-01-16T00:05:45;0.90;99.90
16321;DHT22;8269;50.990;4.494;2024-01-16T00:08:10;0.90;99.90
16321;DHT22;8269;50.990;4.494;2024-01-16T00:10:36;0.90;99.90
16321;DHT22;8269;50.990;4.494;2024-01-16T00:13:02;0.90;99.90
16321;DHT22;8269;50.990;4.494;2024-01-16T00:15:27;0.80;99.90
16321;DHT22;8269;50.990;4.494;2024-01-16T00:17:53;0.80;99.90
16321;DHT22;8269;50.990;4.494;2024-01-16T00:20:19;0.80;99.90
16321;DHT22;8269;50.990;4.494;2024-01-16T00:22:45;0.80;99.90
16321;DHT22;8269;50.990;4.494;2024-01-16T00:25:10;0.80;99.90
16321;DHT22;8269;50.990;4.494;2024-01-16T00:27:36;0.80;99.90
16321;DHT22;8269;50.990;4.494;2024-01-16T00:30:01;0.80;99.90
16321;DHT22;8269;50.990;4.494;2024-01-16T00:32:27;0.80;99.90
16321;DHT22;8269;50.990;4.494;2024-01-16T00:34:53;0.80;99.90
16321;DHT22;8269;50.990;4.494;2024-01-16T00:37:18;0.80;99.90
16321;DHT22;8269;50.990;4.494;2024-01-16T00:39:44;0.80;99.90
16321;DHT22;8269;50.990;4.494;2024-01-16T00:42:09;0.80;99.90
16321;DHT22;8269;50.990;4.494;2024-01-16T00:44:35;0.80;99.90
16321;DHT22;8269;50.990;4.494;2024-01-16T00:47:01;0.80;99.90
16321;DHT22;8269;50.990;4.494;2024-01-16T00:49:27;0.80;99.90
16321;DHT22;8269;50.990;4.494;2024-01-16T00:51:53;0.80;99.90
16321;DHT22;8269;50.990;4.494;2024-01-16T00:54:19;0.70;99.90
16321;DHT22;8269;50.990;4.494;2024-01-16T00:56:45;0.70;99.90
16321;DHT22;8269;50.990;4.494;2024-01-16T00:59:10;0.50;99.90
16321;DHT22;8269;50.990;4.494;2024-01-16T01:01:39;0.60;99.90
16321;DHT22;8269;50.990;4.494;2024-01-16T01:04:04;0.50;99.90
16321;DHT22;8269;50.990;4.494;2024-01-16T01:06:30;0.60;99.90
16321;DHT22;8269;50.990;4.494;2024-01-16T01:08:56;0.40;99.90
16321;DHT22;8269;50.990;4.494;2024-01-16T01:11:21;0.30;99.90
16321;DHT22;8269;50.990;4.494;2024-01-16T01:13:47;0.30;99.90
16321;DHT22;8269;50.990;4.494;2024-01-16T01:16:12;0.20;99.90
16321;DHT22;8269;50.990;4.494;2024-01-16T01:18:38;0.20;99.90
16321;DHT22;8269;50.990;4.494;2024-01-16T01:21:04;0.10;99.90
16321;DHT22;8269;50.990;4.494;2024-01-16T01:23:29;0.10;99.90
16321;DHT22;8269;50.990;4.494;2024-01-16T01:25:55;0.10;99.90
16321;DHT22;8269;50.990;4.494;2024-01-16T01:28:21;0.00;99.90
16321;DHT22;8269;50.990;4.494;2024-01-16T01:30:46;0.00;99.90
16321;DHT22;8269;50.990;4.494;2024-01-16T01:33:12;-0.10;99.90
16321;DHT22;8269;50.990;4.494;2024-01-16T01:35:37;-0.10;99.90
16321;DHT22;8269;50.990;4.494;2024-01-16T01:38:03;-0.10;99.90
16321;DHT22;8269;50.990;4.494;2024-01-16T01:40:29;-0.20;99.90
16321;DHT22;8269;50.990;4.494;2024-01-16T01:42:54;-0.20;99.90
16321;DHT22;8269;50.990;4.494;2024-01-16T01:45:20;-0.10;99.90
16321;DHT22;8269;50.990;4.494;2024-01-16T01:47:47;-0.20;99.90
16321;DHT22;8269;50.990;4.494;2024-01-16T01:50:13;-0.10;99.90
16321;DHT22;8269;50.990;4.494;2024-01-16T01:52:40;-0.20;99.90
16321;DHT22;8269;50.990;4.494;2024-01-16T01:55:11;-0.20;99.90
16321;DHT22;8269;50.990;4.494;2024-01-16T01:57:39;-0.20;99.90
16321;DHT22;8269;50.990;4.494;2024-01-16T02:00:06;-0.20;99.90
16321;DHT22;8269;50.990;4.494;2024-01-16T02:02:32;-0.20;99.90
16321;DHT22;8269;50.990;4.494;2024-01-16T02:04:57;-0.20;99.90
16321;DHT22;8269;50.990;4.494;2024-01-16T02:07:23;-0.20;99.90
16321;DHT22;8269;50.990;4.494;2024-01-16T02:09:50;-0.20;99.90
16321;DHT22;8269;50.990;4.494;2024-01-16T02:12:15;-0.20;99.90
16321;DHT22;8269;50.990;4.494;2024-01-16T02:14:41;-0.30;99.90
16321;DHT22;8269;50.990;4.494;2024-01-16T02:17:07;-0.30;99.90
16321;DHT22;8269;50.990;4.494;2024-01-16T02:19:33;-0.30;99.90
16321;DHT22;8269;50.990;4.494;2024-01-16T02:22:00;-0.30;99.90
16321;DHT22;8269;50.990;4.494;2024-01-16T02:24:27;-0.40;99.90
16321;DHT22;8269;50.990;4.494;2024-01-16T02:26:53;-0.40;99.90
16321;DHT22;8269;50.990;4.494;2024-01-16T02:29:19;-0.40;99.90
16321;DHT22;8269;50.990;4.494;2024-01-16T02:31:45;-0.50;99.90
16321;DHT22;8269;50.990;4.494;2024-01-16T02:34:10;-0.50;99.90
16321;DHT22;8269;50.990;4.494;2024-01-16T02:36:36;-0.50;99.90
16321;DHT22;8269;50.990;4.494;2024-01-16T02:39:02;-0.60;99.90
16321;DHT22;8269;50.990;4.494;2024-01-16T02:41:28;-0.60;99.90
16321;DHT22;8269;50.990;4.494;2024-01-16T02:43:53;-0.60;99.90
16321;DHT22;8269;50.990;4.494;2024-01-16T02:46:19;-0.60;99.90
16321;DHT22;8269;50.990;4.494;2024-01-16T02:48:45;-0.70;99.90
16321;DHT22;8269;50.990;4.494;2024-01-16T02:51:10;-0.70;99.90
16321;DHT22;8269;50.990;4.494;2024-01-16T02:53:36;-0.70;99.90
16321;DHT22;8269;50.990;4.494;2024-01-16T02:56:02;-0.80;99.90
16321;DHT22;8269;50.990;4.494;2024-01-16T02:58:28;-0.70;99.90
16321;DHT22;8269;50.990;4.494;2024-01-16T03:00:55;-0.80;99.90
16321;DHT22;8269;50.990;4.494;2024-01-16T03:03:20;-0.80;99.90
16321;DHT22;8269;50.990;4.494;2024-01-16T03:05:49;-0.80;99.90
16321;DHT22;8269;50.990;4.494;2024-01-16T03:08:14;-0.80;99.90
16321;DHT22;8269;50.990;4.494;2024-01-16T03:10:40;-0.80;99.90
16321;DHT22;8269;50.990;4.494;2024-01-16T03:13:06;-0.90;99.90
16321;DHT22;8269;50.990;4.494;2024-01-16T03:15:32;-0.90;99.90
16321;DHT22;8269;50.990;4.494;2024-01-16T03:17:59;-0.90;99.90
16321;DHT22;8269;50.990;4.494;2024-01-16T03:20:25;-1.00;99.90
16321;DHT22;8269;50.990;4.494;2024-01-16T03:22:51;-1.00;99.90
16321;DHT22;8269;50.990;4.494;2024-01-16T03:25:17;-0.90;99.90
16321;DHT22;8269;50.990;4.494;2024-01-16T03:27:43;-0.90;99.90
16321;DHT22;8269;50.990;4.494;2024-01-16T03:30:10;-0.90;99.90
16321;DHT22;8269;50.990;4.494;2024-01-16T03:32:37;-0.90;99.90
16321;DHT22;8269;50.990;4.494;2024-01-16T03:35:03;-0.90;99.90
16321;DHT22;8269;50.990;4.494;2024-01-16T03:37:29;-0.90;99.90
16321;DHT22;8269;50.990;4.494;2024-01-16T03:39:54;-0.90;99.90
16321;DHT22;8269;50.990;4.494;2024-01-16T03:42:21;-0.90;99.90
16321;DHT22;8269;50.990;4.494;2024-01-16T03:44:46;-0.90;99.90
16321;DHT22;8269;50.990;4.494;2024-01-16T03:47:12;-0.90;99.90
16321;DHT22;8269;50.990;4.494;2024-01-16T03:49:38;-0.90;99.90
16321;DHT22;8269;50.990;4.494;2024-01-16T03:52:04;-0.90;99.90
16321;DHT22;8269;50.990;4.494;2024-01-16T03:54:30;-0.80;99.90
16321;DHT22;8269;50.990;4.494;2024-01-16T03:56:56;-0.90;99.90
16321;DHT22;8269;50.990;4.494;2024-01-16T03:59:21;-0.80;99.90
16321;DHT22;8269;50.990;4.494;2024-01-16T04:01:47;-0.90;99.90
16321;DHT22;8269;50.990;4.494;2024-01-16T04:04:15;-0.80;99.90
16321;DHT22;8269;50.990;4.494;2024-01-16T04:06:41;-0.80;99.90
16321;DHT22;8269;50.990;4.494;2024-01-16T04:09:07;-0.80;99.90
16321;DHT22;8269;50.990;4.494;2024-01-16T04:11:33;-0.80;99.90
16321;DHT22;8269;50.990;4.494;2024-01-16T04:13:59;-0.80;99.90
16321;DHT22;8269;50.990;4.494;2024-01-16T04:16:25;-0.80;99.90
16321;DHT22;8269;50.990;4.494;2024-01-16T04:18:50;-0.80;99.90
16321;DHT22;8269;50.990;4.494;2024-01-16T04:21:16;-0.80;99.90
16321;DHT22;8269;50.990;4.494;2024-01-16T04:23:42;-0.80;99.90
16321;DHT22;8269;50.990;4.494;2024-01-16T04:26:07;-0.80;99.90
16321;DHT22;8269;50.990;4.494;2024-01-16T04:28:33;-0.80;99.90
16321;DHT22;8269;50.990;4.494;2024-01-16T04:31:00;-0.80;99.90
16321;DHT22;8269;50.990;4.494;2024-01-16T04:33:27;-0.70;99.90
16321;DHT22;8269;50.990;4.494;2024-01-16T04:35:52;-0.80;99.90
16321;DHT22;8269;50.990;4.494;2024-01-16T04:38:18;-0.80;99.90
16321;DHT22;8269;50.990;4.494;2024-01-16T04:40:43;-0.80;99.90
16321;DHT22;8269;50.990;4.494;2024-01-16T04:43:09;-0.90;99.90
16321;DHT22;8269;50.990;4.494;2024-01-16T04:45:35;-0.90;99.90
16321;DHT22;8269;50.990;4.494;2024-01-16T04:48:00;-1.00;99.90
16321;DHT22;8269;50.990;4.494;2024-01-16T04:50:26;-1.00;99.90
16321;DHT22;8269;50.990;4.494;2024-01-16T04:53:00;-1.00;99.90
16321;DHT22;8269;50.990;4.494;2024-01-16T04:55:27;-1.00;99.90
16321;DHT22;8269;50.990;4.494;2024-01-16T04:57:53;-1.00;99.90
16321;DHT22;8269;50.990;4.494;2024-01-16T05:00:19;-1.10;99.90
16321;DHT22;8269;50.990;4.494;2024-01-16T05:02:45;-1.10;99.90
16321;DHT22;8269;50.990;4.494;2024-01-16T05:05:12;-1.20;99.90
16321;DHT22;8269;50.990;4.494;2024-01-16T05:07:38;-1.20;99.90
16321;DHT22;8269;50.990;4.494;2024-01-16T05:10:04;-1.20;99.90
16321;DHT22;8269;50.990;4.494;2024-01-16T05:12:30;-1.20;99.90
16321;DHT22;8269;50.990;4.494;2024-01-16T05:14:55;-1.30;99.90
16321;DHT22;8269;50.990;4.494;2024-01-16T05:17:21;-1.30;99.90
16321;DHT22;8269;50.990;4.494;2024-01-16T05:19:46;-1.30;99.90
16321;DHT22;8269;50.990;4.494;2024-01-16T05:22:12;-1.40;99.90
16321;DHT22;8269;50.990;4.494;2024-01-16T05:24:38;-1.40;99.90
16321;DHT22;8269;50.990;4.494;2024-01-16T05:27:04;-1.40;99.90
16321;DHT22;8269;50.990;4.494;2024-01-16T05:29:30;-1.40;99.90
16321;DHT22;8269;50.990;4.494;2024-01-16T05:31:56;-1.40;99.90
16321;DHT22;8269;50.990;4.494;2024-01-16T05:34:22;-1.60;99.90
16321;DHT22;8269;50.990;4.494;2024-01-16T05:36:48;-1.40;99.90
16321;DHT22;8269;50.990;4.494;2024-01-16T05:39:13;-1.50;99.90
16321;DHT22;8269;50.990;4.494;2024-01-16T05:41:39;-1.40;99.90
16321;DHT22;8269;50.990;4.494;2024-01-16T05:44:05;-1.50;99.90
16321;DHT22;8269;50.990;4.494;2024-01-16T05:46:34;-1.40;99.90
16321;DHT22;8269;50.990;4.494;2024-01-16T05:48:59;-1.40;99.90
16321;DHT22;8269;50.990;4.494;2024-01-16T05:51:27;-1.40;99.90
16321;DHT22;8269;50.990;4.494;2024-01-16T05:53:53;-1.40;99.90
16321;DHT22;8269;50.990;4.494;2024-01-16T05:56:19;-1.40;99.90
16321;DHT22;8269;50.990;4.494;2024-01-16T05:58:45;-1.40;99.90
16321;DHT22;8269;50.990;4.494;2024-01-16T06:01:10;-1.50;99.90
16321;DHT22;8269;50.990;4.494;2024-01-16T06:03:39;-1.50;99.90
16321;DHT22;8269;50.990;4.494;2024-01-16T06:06:05;-1.50;99.90
16321;DHT22;8269;50.990;4.494;2024-01-16T06:08:31;-1.50;99.90
16321;DHT22;8269;50.990;4.494;2024-01-16T06:10:57;-1.50;99.90
16321;DHT22;8269;50.990;4.494;2024-01-16T06:13:22;-1.60;99.90
16321;DHT22;8269;50.990;4.494;2024-01-16T06:15:48;-1.60;99.90
16321;DHT22;8269;50.990;4.494;2024-01-16T06:18:13;-1.60;99.90
16321;DHT22;8269;50.990;4.494;2024-01-16T06:20:39;-1.60;99.90
16321;DHT22;8269;50.990;4.494;2024-01-16T06:23:05;-1.60;99.90
16321;DHT22;8269;50.990;4.494;2024-01-16T06:25:31;-1.60;99.90
16321;DHT22;8269;50.990;4.494;2024-01-16T06:27:57;-1.50;99.90
16321;DHT22;8269;50.990;4.494;2024-01-16T06:30:22;-1.50;99.90
16321;DHT22;8269;50.990;4.494;2024-01-16T06:32:50;-1.40;99.90
16321;DHT22;8269;50.990;4.494;2024-01-16T06:35:16;-1.50;99.90
16321;DHT22;8269;50.990;4.494;2024-01-16T06:37:43;-1.40;99.90
16321;DHT22;8269;50.990;4.494;2024-01-16T06:40:09;-1.40;99.90
16321;DHT22;8269;50.990;4.494;2024-01-16T06:42:35;-1.30;99.90
16321;DHT22;8269;50.990;4.494;2024-01-16T06:45:03;-1.30;99.90
16321;DHT22;8269;50.990;4.494;2024-01-16T06:47:29;-1.30;99.90
16321;DHT22;8269;50.990;4.494;2024-01-16T06:49:55;-1.20;99.90
16321;DHT22;8269;50.990;4.494;2024-01-16T06:52:20;-1.20;99.90
16321;DHT22;8269;50.990;4.494;2024-01-16T06:54:46;-1.20;99.90
16321;DHT22;8269;50.990;4.494;2024-01-16T06:57:12;-1.20;99.90
16321;DHT22;8269;50.990;4.494;2024-01-16T06:59:37;-1.10;99.90
16321;DHT22;8269;50.990;4.494;2024-01-16T07:02:03;-1.10;99.90
16321;DHT22;8269;50.990;4.494;2024-01-16T07:04:29;-1.20;99.90
16321;DHT22;8269;50.990;4.494;2024-01-16T07:06:55;-1.10;99.90
16321;DHT22;8269;50.990;4.494;2024-01-16T07:09:20;-1.10;99.90
16321;DHT22;8269;50.990;4.494;2024-01-16T07:11:47;-1.10;99.90
16321;DHT22;8269;50.990;4.494;2024-01-16T07:14:13;-1.10;99.90
16321;DHT22;8269;50.990;4.494;2024-01-16T07:16:38;-1.10;99.90
16321;DHT22;8269;50.990;4.494;2024-01-16T07:19:04;-1.10;99.90
16321;DHT22;8269;50.990;4.494;2024-01-16T07:21:30;-1.10;99.90
16321;DHT22;8269;50.990;4.494;2024-01-16T07:23:57;-1.20;99.90
16321;DHT22;8269;50.990;4.494;2024-01-16T07:26:24;-1.20;99.90
16321;DHT22;8269;50.990;4.494;2024-01-16T07:28:50;-1.10;99.90
16321;DHT22;8269;50.990;4.494;2024-01-16T07:31:15;-1.10;99.90
16321;DHT22;8269;50.990;4.494;2024-01-16T07:33:44;-1.00;99.90
16321;DHT22;8269;50.990;4.494;2024-01-16T07:36:10;-1.20;99.90
16321;DHT22;8269;50.990;4.494;2024-01-16T07:38:36;-1.00;99.90
16321;DHT22;8269;50.990;4.494;2024-01-16T07:41:02;-1.00;99.90
16321;DHT22;8269;50.990;4.494;2024-01-16T07:43:28;-1.00;99.90
16321;DHT22;8269;50.990;4.494;2024-01-16T07:45:55;-1.00;99.90
16321;DHT22;8269;50.990;4.494;2024-01-16T07:48:21;-1.00;99.90
16321;DHT22;8269;50.990;4.494;2024-01-16T07:50:48;-1.00;99.90
16321;DHT22;8269;50.990;4.494;2024-01-16T07:53:14;-1.00;99.90
16321;DHT22;8269;50.990;4.494;2024-01-16T07:55:41;-1.00;99.90
16321;DHT22;8269;50.990;4.494;2024-01-16T07:58:06;-0.90;99.90
16321;DHT22;8269;50.990;4.494;2024-01-16T08:00:32;-0.90;99.90
16321;DHT22;8269;50.990;4.494;2024-01-16T08:02:57;-0.90;99.90
16321;DHT22;8269;50.990;4.494;2024-01-16T08:05:23;-0.90;99.90
16321;DHT22;8269;50.990;4.494;2024-01-16T08:07:51;-0.80;99.90
16321;DHT22;8269;50.990;4.494;2024-01-16T08:10:17;-0.90;99.90
16321;DHT22;8269;50.990;4.494;2024-01-16T08:12:42;-0.80;99.90
16321;DHT22;8269;50.990;4.494;2024-01-16T08:15:09;-0.80;99.90
16321;DHT22;8269;50.990;4.494;2024-01-16T08:17:35;-0.80;99.90
16321;DHT22;8269;50.990;4.494;2024-01-16T08:20:00;-0.80;99.90
16321;DHT22;8269;50.990;4.494;2024-01-16T08:22:26;-0.70;99.90
16321;DHT22;8269;50.990;4.494;2024-01-16T08:24:52;-0.60;99.90
16321;DHT22;8269;50.990;4.494;2024-01-16T08:27:19;-0.60;99.90
16321;DHT22;8269;50.990;4.494;2024-01-16T08:29:44;-0.70;99.90
16321;DHT22;8269;50.990;4.494;2024-01-16T08:32:10;-0.60;99.90
16321;DHT22;8269;50.990;4.494;2024-01-16T08:34:36;-0.60;99.90
16321;DHT22;8269;50.990;4.494;2024-01-16T08:37:01;-0.60;99.90
16321;DHT22;8269;50.990;4.494;2024-01-16T08:39:29;-0.60;99.90
16321;DHT22;8269;50.990;4.494;2024-01-16T08:41:58;-0.70;99.90
16321;DHT22;8269;50.990;4.494;2024-01-16T08:44:24;-0.70;99.90
16321;DHT22;8269;50.990;4.494;2024-01-16T08:46:49;-0.70;99.90
16321;DHT22;8269;50.990;4.494;2024-01-16T08:49:15;-0.60;99.90
16321;DHT22;8269;50.990;4.494;2024-01-16T08:51:40;-0.60;99.90
16321;DHT22;8269;50.990;4.494;2024-01-16T08:54:07;-0.60;99.90
16321;DHT22;8269;50.990;4.494;2024-01-16T08:56:32;-0.60;99.90
16321;DHT22;8269;50.990;4.494;2024-01-16T08:58:58;-0.60;99.90
16321;DHT22;8269;50.990;4.494;2024-01-16T09:01:24;-0.60;99.90
16321;DHT22;8269;50.990;4.494;2024-01-16T09:03:50;-0.60;99.90
16321;DHT22;8269;50.990;4.494;2024-01-16T09:06:15;-0.60;99.90
16321;DHT22;8269;50.990;4.494;2024-01-16T09:08:41;-0.60;99.90
16321;DHT22;8269;50.990;4.494;2024-01-16T09:11:07;-0.60;99.90
16321;DHT22;8269;50.990;4.494;2024-01-16T09:13:32;-0.60;99.90
16321;DHT22;8269;50.990;4.494;2024-01-16T09:15:59;-0.60;99.90
16321;DHT22;8269;50.990;4.494;2024-01-16T09:18:24;-0.60;99.90
16321;DHT22;8269;50.990;4.494;2024-01-16T09:20:50;-0.60;99.90
16321;DHT22;8269;50.990;4.494;2024-01-16T09:23:16;-0.60;99.90
16321;DHT22;8269;50.990;4.494;2024-01-16T09:25:41;-0.60;99.90
16321;DHT22;8269;50.990;4.494;2024-01-16T09:28:07;-0.60;99.90
16321;DHT22;8269;50.990;4.494;2024-01-16T09:30:32;-0.60;99.90
16321;DHT22;8269;50.990;4.494;2024-01-16T09:32:58;-0.50;99.90
16321;DHT22;8269;50.990;4.494;2024-01-16T09:35:24;-0.50;99.90
16321;DHT22;8269;50.990;4.494;2024-01-16T09:37:50;-0.50;99.90
16321;DHT22;8269;50.990;4.494;2024-01-16T09:40:16;-0.50;99.90
16321;DHT22;8269;50.990;4.494;2024-01-16T09:42:42;-0.50;99.90
16321;DHT22;8269;50.990;4.494;2024-01-16T09:45:09;-0.50;99.90
16321;DHT22;8269;50.990;4.494;2024-01-16T09:47:34;-0.50;99.90
16321;DHT22;8269;50.990;4.494;2024-01-16T09:50:02;-0.40;99.90
16321;DHT22;8269;50.990;4.494;2024-01-16T09:52:29;-0.40;99.90
16321;DHT22;8269;50.990;4.494;2024-01-16T09:54:55;-0.30;99.90
16321;DHT22;8269;50.990;4.494;2024-01-16T09:57:25;-0.30;99.90
16321;DHT22;8269;50.990;4.494;2024-01-16T09:59:52;-0.30;99.90
16321;DHT22;8269;50.990;4.494;2024-01-16T10:02:19;-0.20;99.90
16321;DHT22;8269;50.990;4.494;2024-01-16T10:04:46;-0.30;99.90
16321;DHT22;8269;50.990;4.494;2024-01-16T10:07:13;-0.20;99.90
16321;DHT22;8269;50.990;4.494;2024-01-16T10:09:39;-0.20;99.90
16321;DHT22;8269;50.990;4.494;2024-01-16T10:12:08;-0.20;99.90
16321;DHT22;8269;50.990;4.494;2024-01-16T10:14:36;-0.20;99.90
16321;DHT22;8269;50.990;4.494;2024-01-16T10:17:04;-0.20;99.90
16321;DHT22;8269;50.990;4.494;2024-01-16T10:19:52;-0.20;99.90
16321;DHT22;8269;50.990;4.494;2024-01-16T10:22:23;-0.20;99.90
16321;DHT22;8269;50.990;4.494;2024-01-16T10:25:03;-0.10;99.90
16321;DHT22;8269;50.990;4.494;2024-01-16T10:27:29;-0.10;99.90
16321;DHT22;8269;50.990;4.494;2024-01-16T10:29:57;0.00;99.90
16321;DHT22;8269;50.990;4.494;2024-01-16T10:32:37;0.00;99.90
16321;DHT22;8269;50.990;4.494;2024-01-16T10:35:12;0.00;99.90
16321;DHT22;8269;50.990;4.494;2024-01-16T10:37:44;0.00;99.90
16321;DHT22;8269;50.990;4.494;2024-01-16T10:40:10;0.10;99.90
16321;DHT22;8269;50.990;4.494;2024-01-16T10:42:37;0.10;99.90
16321;DHT22;8269;50.990;4.494;2024-01-16T10:45:05;0.10;99.90
16321;DHT22;8269;50.990;4.494;2024-01-16T10:47:31;0.20;99.90
16321;DHT22;8269;50.990;4.494;2024-01-16T10:50:00;0.20;99.90
16321;DHT22;8269;50.990;4.494;2024-01-16T10:52:28;0.30;99.90
16321;DHT22;8269;50.990;4.494;2024-01-16T10:54:55;0.30;99.90
16321;DHT22;8269;50.990;4.494;2024-01-16T10:57:24;0.30;99.90
16321;DHT22;8269;50.990;4.494;2024-01-16T11:00:02;0.40;99.90
16321;DHT22;8269;50.990;4.494;2024-01-16T11:02:39;0.50;99.90
16321;DHT22;8269;50.990;4.494;2024-01-16T11:05:09;0.50;99.90
16321;DHT22;8269;50.990;4.494;2024-01-16T11:07:37;0.50;99.90
16321;DHT22;8269;50.990;4.494;2024-01-16T11:10:03;0.50;99.90
16321;DHT22;8269;50.990;4.494;2024-01-16T11:12:30;0.60;99.90
16321;DHT22;8269;50.990;4.494;2024-01-16T11:15:00;0.60;99.90
16321;DHT22;8269;50.990;4.494;2024-01-16T11:17:29;0.70;99.90
16321;DHT22;8269;50.990;4.494;2024-01-16T11:19:56;0.80;99.90
16321;DHT22;8269;50.990;4.494;2024-01-16T11:22:23;0.80;99.90
16321;DHT22;8269;50.990;4.494;2024-01-16T11:25:16;0.80;99.90
16321;DHT22;8269;50.990;4.494;2024-01-16T11:27:45;0.90;99.90
16321;DHT22;8269;50.990;4.494;2024-01-16T11:30:31;0.90;99.90
16321;DHT22;8269;50.990;4.494;2024-01-16T11:32:57;1.00;99.90
16321;DHT22;8269;50.990;4.494;2024-01-16T11:35:41;1.00;99.90
16321;DHT22;8269;50.990;4.494;2024-01-16T11:38:17;1.10;99.90
16321;DHT22;8269;50.990;4.494;2024-01-16T11:40:44;1.20;99.90
16321;DHT22;8269;50.990;4.494;2024-01-16T11:46:01;1.20;99.90
16321;DHT22;8269;50.990;4.494;2024-01-16T11:48:27;1.30;99.90
16321;DHT22;8269;50.990;4.494;2024-01-16T11:50:53;1.30;99.90
16321;DHT22;8269;50.990;4.494;2024-01-16T11:53:38;1.30;99.90
16321;DHT22;8269;50.990;4.494;2024-01-16T12:01:45;1.40;99.90
16321;DHT22;8269;50.990;4.494;2024-01-16T12:04:11;1.40;99.90
16321;DHT22;8269;50.990;4.494;2024-01-16T12:06:37;1.40;99.90
16321;DHT22;8269;50.990;4.494;2024-01-16T12:09:16;1.40;99.90
16321;DHT22;8269;50.990;4.494;2024-01-16T12:11:43;1.40;99.90
16321;DHT22;8269;50.990;4.494;2024-01-16T12:14:13;1.50;99.90
16321;DHT22;8269;50.990;4.494;2024-01-16T12:16:39;1.50;99.90
16321;DHT22;8269;50.990;4.494;2024-01-16T12:19:08;1.50;99.90
16321;DHT22;8269;50.990;4.494;2024-01-16T12:21:41;1.60;99.90
16321;DHT22;8269;50.990;4.494;2024-01-16T12:24:07;1.60;99.90
16321;DHT22;8269;50.990;4.494;2024-01-16T12:26:33;1.60;99.90
16321;DHT22;8269;50.990;4.494;2024-01-16T12:28:59;1.60;99.90
16321;DHT22;8269;50.990;4.494;2024-01-16T12:31:25;1.70;99.90
16321;DHT22;8269;50.990;4.494;2024-01-16T12:33:51;1.70;99.90
16321;DHT22;8269;50.990;4.494;2024-01-16T12:36:17;1.70;99.90
16321;DHT22;8269;50.990;4.494;2024-01-16T12:38:43;1.70;99.90
16321;DHT22;8269;50.990;4.494;2024-01-16T12:41:10;1.70;99.90
16321;DHT22;8269;50.990;4.494;2024-01-16T12:43:37;1.70;99.90
16321;DHT22;8269;50.990;4.494;2024-01-16T12:46:03;1.80;99.90
16321;DHT22;8269;50.990;4.494;2024-01-16T12:48:28;1.80;99.90
16321;DHT22;8269;50.990;4.494;2024-01-16T12:51:04;1.80;99.90
16321;DHT22;8269;50.990;4.494;2024-01-16T12:53:30;1.90;99.90
16321;DHT22;8269;50.990;4.494;2024-01-16T12:56:01;2.00;99.90
16321;DHT22;8269;50.990;4.494;2024-01-16T12:58:33;1.90;99.90
16321;DHT22;8269;50.990;4.494;2024-01-16T13:01:23;2.00;99.90
16321;DHT22;8269;50.990;4.494;2024-01-16T13:03:50;2.00;99.90
16321;DHT22;8269;50.990;4.494;2024-01-16T13:06:20;2.00;99.90
16321;DHT22;8269;50.990;4.494;2024-01-16T13:08:50;2.00;99.90
16321;DHT22;8269;50.990;4.494;2024-01-16T13:11:17;2.00;99.90
16321;DHT22;8269;50.990;4.494;2024-01-16T13:13:48;2.00;99.90
16321;DHT22;8269;50.990;4.494;2024-01-16T13:16:15;2.00;99.90
16321;DHT22;8269;50.990;4.494;2024-01-16T13:18:41;2.00;99.90
16321;DHT22;8269;50.990;4.494;2024-01-16T13:21:07;2.00;99.90
16321;DHT22;8269;50.990;4.494;2024-01-16T13:23:33;2.00;99.90
16321;DHT22;8269;50.990;4.494;2024-01-16T13:25:58;2.10;99.90
16321;DHT22;8269;50.990;4.494;2024-01-16T13:28:25;2.10;99.90
16321;DHT22;8269;50.990;4.494;2024-01-16T13:30:51;2.10;99.90
16321;DHT22;8269;50.990;4.494;2024-01-16T13:33:18;2.00;99.90
16321;DHT22;8269;50.990;4.494;2024-01-16T13:35:47;2.00;99.90
16321;DHT22;8269;50.990;4.494;2024-01-16T13:38:13;2.00;99.90
16321;DHT22;8269;50.990;4.494;2024-01-16T13:40:41;2.10;99.90
16321;DHT22;8269;50.990;4.494;2024-01-16T13:43:07;2.10;99.90
16321;DHT22;8269;50.990;4.494;2024-01-16T13:45:33;2.10;99.90
16321;DHT22;8269;50.990;4.494;2024-01-16T13:48:01;2.10;99.90
16321;DHT22;8269;50.990;4.494;2024-01-16T13:50:27;2.10;99.90
16321;DHT22;8269;50.990;4.494;2024-01-16T13:52:52;2.20;99.90
16321;DHT22;8269;50.990;4.494;2024-01-16T13:55:20;2.20;99.90
16321;DHT22;8269;50.990;4.494;2024-01-16T13:57:46;2.20;99.90
16321;DHT22;8269;50.990;4.494;2024-01-16T14:00:13;2.20;99.90
16321;DHT22;8269;50.990;4.494;2024-01-16T14:02:43;2.20;99.90
16321;DHT22;8269;50.990;4.494;2024-01-16T14:05:16;2.10;99.90
16321;DHT22;8269;50.990;4.494;2024-01-16T14:07:43;2.10;99.90
16321;DHT22;8269;50.990;4.494;2024-01-16T14:10:12;2.10;99.90
16321;DHT22;8269;50.990;4.494;2024-01-16T14:12:45;2.10;99.90
16321;DHT22;8269;50.990;4.494;2024-01-16T14:15:12;2.00;99.90
16321;DHT22;8269;50.990;4.494;2024-01-16T14:17:50;2.00;99.90
16321;DHT22;8269;50.990;4.494;2024-01-16T14:20:17;1.90;99.90
16321;DHT22;8269;50.990;4.494;2024-01-16T14:22:43;1.90;99.90
16321;DHT22;8269;50.990;4.494;2024-01-16T14:25:10;1.90;99.90
16321;DHT22;8269;50.990;4.494;2024-01-16T14:30:26;1.90;99.90
16321;DHT22;8269;50.990;4.494;2024-01-16T14:32:52;1.90;99.90
16321;DHT22;8269;50.990;4.494;2024-01-16T14:35:18;1.90;99.90
16321;DHT22;8269;50.990;4.494;2024-01-16T14:37:45;1.90;99.90
16321;DHT22;8269;50.990;4.494;2024-01-16T14:40:11;1.80;99.90
16321;DHT22;8269;50.990;4.494;2024-01-16T14:42:51;1.80;99.90
16321;DHT22;8269;50.990;4.494;2024-01-16T14:45:21;1.80;99.90
16321;DHT22;8269;50.990;4.494;2024-01-16T14:47:48;1.70;99.90
16321;DHT22;8269;50.990;4.494;2024-01-16T14:50:15;1.70;99.90
16321;DHT22;8269;50.990;4.494;2024-01-16T14:52:46;1.80;99.90
16321;DHT22;8269;50.990;4.494;2024-01-16T14:55:12;1.70;99.90
16321;DHT22;8269;50.990;4.494;2024-01-16T14:57:38;1.70;99.90
16321;DHT22;8269;50.990;4.494;2024-01-16T15:00:17;1.60;99.90
16321;DHT22;8269;50.990;4.494;2024-01-16T15:02:52;1.60;99.90
16321;DHT22;8269;50.990;4.494;2024-01-16T15:05:19;1.60;99.90
16321;DHT22;8269;50.990;4.494;2024-01-16T15:07:46;1.50;99.90
16321;DHT22;8269;50.990;4.494;2024-01-16T15:10:12;1.50;99.90
16321;DHT22;8269;50.990;4.494;2024-01-16T15:12:39;1.50;99.90
16321;DHT22;8269;50.990;4.494;2024-01-16T15:15:06;1.50;99.90
16321;DHT22;8269;50.990;4.494;2024-01-16T15:17:33;1.40;99.90
16321;DHT22;8269;50.990;4.494;2024-01-16T15:19:58;1.40;99.90
16321;DHT22;8269;50.990;4.494;2024-01-16T15:22:24;1.30;99.90
16321;DHT22;8269;50.990;4.494;2024-01-16T15:24:49;1.30;99.90
16321;DHT22;8269;50.990;4.494;2024-01-16T15:27:15;1.20;99.90
16321;DHT22;8269;50.990;4.494;2024-01-16T15:29:41;1.20;99.90
16321;DHT22;8269;50.990;4.494;2024-01-16T15:32:07;1.10;99.90
16321;DHT22;8269;50.990;4.494;2024-01-16T15:34:32;1.10;99.90
16321;DHT22;8269;50.990;4.494;2024-01-16T15:36:58;1.10;99.90
16321;DHT22;8269;50.990;4.494;2024-01-16T15:39:24;1.10;99.90
16321;DHT22;8269;50.990;4.494;2024-01-16T15:41:50;1.10;99.90
16321;DHT22;8269;50.990;4.494;2024-01-16T15:44:16;1.10;99.90
16321;DHT22;8269;50.990;4.494;2024-01-16T15:46:55;1.00;99.90
16321;DHT22;8269;50.990;4.494;2024-01-16T15:49:21;1.00;99.90
16321;DHT22;8269;50.990;4.494;2024-01-16T15:51:47;1.00;99.90
16321;DHT22;8269;50.990;4.494;2024-01-16T15:54:12;0.90;99.90
16321;DHT22;8269;50.990;4.494;2024-01-16T15:56:38;0.80;99.90
16321;DHT22;8269;50.990;4.494;2024-01-16T15:59:04;0.80;99.90
16321;DHT22;8269;50.990;4.494;2024-01-16T16:01:30;0.70;99.90